Arnoldsville, Georgia
Current Conditions -  °F | °C
As of 10:51 PM on Saturday 25 Oct 2014 (Local Time) from KAHN Reporting Station
Clear Clear  
Wind Chill: 16°   Ceiling: Unl
Heat Index: 16°   Visibility: 10mi
Dew Point: 10°   Wind: 6mph
Humidity: 67%   Direction: 290°WNW
Pressure: 30.01"   Gusts: NA
Location:  33.91°N, 83.22°W
Report Text: KAHN 260251Z AUTO 29005KT 10SM CLR 16/10 A3001 RMK AO2 SLP159 T01610100 53005
Loading
Personal Weather Stations






























Interactive Weather Map
Tropical Storm Tracking
New forecast layout! Learn more

10-Day Weather Forecast

Advertisements
Track Severe Weather on mobile